Detalhes do Voo

Voltar

 DETALHES DO VÔO

Piloto: GLD1222 Ramon B. Aeronave: ATR 72-500 GOLD 5 Anos Distância: 689NM
Origem: SBGL Destino: SBPP Duração: 3.87
Validação: Validado Tipo: Charter Matrícula: PT-GLD
ZFW: 28294 Block Fuel/Init FOB 1,543/0 Combustível em Voo 1,543
Passageiros: 56 Carga: 0 Alternativo: SBCG
Hora da Decolagem: 1213 Velocidade de Cruzeiro: N0275 Nível de Voo: FL200
Regra Visual: IFR ICAO da Aeronave: A320 Unidade de Peso: Kg
Data: 04/04/2021 Observação: GOLD ACARS Rede: IVAO
Acidentou?: Não Comentários do Validador: Pontuação do Voo 114.95

 ROTA

ROTA EVRA1A SIDUR UZ10 LON DCT KABEG
REMARKS OPR/GOLD VIRTUAL AIRLINES PER/C RMK/FROM SBGL RMK/PIC GLD1222

 PENALIDADES DO VOO

Para entender como cada item é pontuado, consulte as regras de avaliação.

Nenhuma penalidade registrada para este voo.

 ANÁLISE DO POUSO

Vento durante o pouso: 358º/0 kt Proa durante o pouso: 19
V/S do Pouso: -83 ft/min IAS do Pouso: 107 kt
Força G no pouso: 1.0256 G Bank no pouso: 0.53
Pitch no Pouso -2.42 Flaps no Pouso 100
Nav Lights ON Landing Lights ON
Beacon Lights ON Strobe Lights ON

 MAPA DO VOO

 PERFIL VERTICAL DO VOO

 EVENTOS PRINCIPAIS DO VOO

DATAEVENTOIASALTITUDE
2021-04-04 15:13:54 GOLD ACARS VERSION 1.4.3.000
2021-04-04 15:13:54 BCN LIGHTS ON00
2021-04-04 15:13:54 BOARDING1185
2021-04-04 15:17:27 STARTING ENGINE 21185
2021-04-04 15:17:47 STARTING ENGINE 11185
2021-04-04 15:18:05 LND LIGHTS ON1185
2021-04-04 15:18:06 STB LIGHTS ON1185
2021-04-04 15:18:36 FLAP 49%1185
2021-04-04 15:18:45 TAXI TO THE RWY3185
2021-04-04 15:19:13 CLIMBING135202
2021-04-04 15:19:13 GEAR UP135202
2021-04-04 15:19:27 AP ENGAGED139603
2021-04-04 15:19:36 FLAP 0%138933
2021-04-04 15:24:04 LND LIGHTS OFF1399926
2021-04-04 15:33:02 CRUISE14019969
2021-04-04 16:21:39 DESCEND19819986
2021-04-04 16:21:46 CLIMBING19819976
2021-04-04 16:21:50 CRUISE19620028
2021-04-04 16:21:53 DESCEND19720020
2021-04-04 16:24:55 CLIMBING19719979
2021-04-04 16:24:59 CRUISE19620012
2021-04-04 17:50:43 DESCEND19919988
2021-04-04 17:50:50 CLIMBING19919974
2021-04-04 17:50:55 CRUISE19720028
2021-04-04 17:50:58 DESCEND19720020
2021-04-04 18:02:56 CLIMBING20019977
2021-04-04 18:03:00 CRUISE19920005
2021-04-04 18:03:54 DESCEND20019987
2021-04-04 18:04:22 CLIMBING19919982
2021-04-04 18:04:26 CRUISE19820016
2021-04-04 18:05:10 DESCEND19919986
2021-04-04 18:05:15 CLIMBING19919985
2021-04-04 18:05:19 CRUISE19820011
2021-04-04 18:06:23 DESCEND19919985
2021-04-04 18:07:38 CLIMBING19819990
2021-04-04 18:07:40 CRUISE19720008
2021-04-04 18:10:03 DESCEND19919986
2021-04-04 18:53:30 LND LIGHTS ON22010138
2021-04-04 18:58:16 CLIMBING1872537
2021-04-04 18:58:20 CRUISE1822568
2021-04-04 19:00:18 FLAP 49%1282523
2021-04-04 19:00:21 GEAR DOWN1292533
2021-04-04 19:00:23 FLAP 100%1292550
2021-04-04 19:01:45 AP DISENGAGED1463383
2021-04-04 19:02:28 LANDING1253414
2021-04-04 19:04:14 LANDED - VS: -83 ft/min 1072223
2021-04-04 19:04:14 LANDING WITH INCORRECT QNH - SET:1016 LOCAL: 10131072223
2021-04-04 19:04:23 AT THE GATE292215
2021-04-04 19:05:26 TAXI LIGHTS ON302222
2021-04-04 19:05:26 LND LIGHTS OFF302222
2021-04-04 19:05:27 STB LIGHTS OFF302222
2021-04-04 19:05:54 TAXI LIGHTS OFF02229
2021-04-04 19:05:57 STOPPING ENGINE 102229
2021-04-04 19:05:57 STOPPING ENGINE 202229
2021-04-04 19:06:08 FLIGHT FINISHED02229

 DADOS DO ACARS

DATA IAS GS ALTITUDE COMBUSTÍVEL USADO OAT FASE DO VOO
2021-04-04 15:15:55 2 0 185 -1509 33 BOARDING
2021-04-04 15:16:55 2 0 185 -1509 33 BOARDING
2021-04-04 15:17:55 2 0 185 -1508 33 BOARDING
2021-04-04 15:18:56 65 71 186 -1503 33 BOARDING
2021-04-04 15:19:56 146 159 1618 -1485 30 TAXI TO THE RWY
2021-04-04 15:20:56 139 154 3947 -1469 25 CLIMBING
2021-04-04 15:21:57 139 156 6071 -1453 20 CLIMBING
2021-04-04 15:22:57 139 160 8000 -1439 15 CLIMBING
2021-04-04 15:23:57 139 165 9751 -1425 11 CLIMBING
2021-04-04 15:24:58 139 168 11353 -1412 7 CLIMBING
2021-04-04 15:25:58 139 175 12705 -1400 4 CLIMBING
2021-04-04 15:26:58 140 179 13985 -1389 0 CLIMBING
2021-04-04 15:27:59 140 184 15174 -1378 -2 CLIMBING
2021-04-04 15:28:59 140 189 16266 -1368 -4 CLIMBING
2021-04-04 15:29:59 140 193 17299 -1358 -7 CLIMBING
2021-04-04 15:31:00 140 197 18257 -1348 -9 CLIMBING
2021-04-04 15:32:00 140 200 19152 -1339 -12 CLIMBING
2021-04-04 15:33:01 140 204 19958 -1330 -14 CLIMBING
2021-04-04 15:34:01 167 240 20009 -1320 -14 CLIMBING
2021-04-04 15:35:01 182 261 20004 -1311 -14 CRUISE
2021-04-04 15:36:02 188 271 19995 -1302 -15 CRUISE
2021-04-04 15:37:02 194 276 20002 -1293 -15 CRUISE
2021-04-04 15:38:02 195 278 19999 -1284 -16 CRUISE
2021-04-04 15:39:03 196 280 20000 -1274 -16 CRUISE
2021-04-04 15:40:03 197 281 20000 -1265 -16 CRUISE
2021-04-04 15:41:03 197 282 20000 -1256 -16 CRUISE
2021-04-04 15:42:04 197 282 20000 -1246 -16 CRUISE
2021-04-04 15:43:04 198 282 20000 -1237 -16 CRUISE
2021-04-04 15:44:04 198 282 20000 -1228 -16 CRUISE
2021-04-04 15:45:05 198 282 20000 -1218 -16 CRUISE
2021-04-04 15:46:05 198 283 20001 -1209 -16 CRUISE
2021-04-04 15:47:05 198 283 20001 -1199 -16 CRUISE
2021-04-04 15:48:06 199 282 19994 -1190 -15 CRUISE
2021-04-04 15:49:06 202 278 20001 -1181 -15 CRUISE
2021-04-04 15:50:06 204 271 20001 -1171 -15 CRUISE
2021-04-04 15:51:07 200 267 19998 -1162 -15 CRUISE
2021-04-04 15:52:07 198 265 19998 -1153 -15 CRUISE
2021-04-04 15:53:07 198 264 19999 -1143 -15 CRUISE
2021-04-04 15:54:08 197 264 19999 -1134 -15 CRUISE
2021-04-04 15:55:08 197 263 19998 -1125 -15 CRUISE
2021-04-04 15:56:09 197 263 19998 -1116 -15 CRUISE
2021-04-04 15:57:09 197 263 19998 -1106 -15 CRUISE
2021-04-04 15:58:10 197 263 19998 -1097 -15 CRUISE
2021-04-04 15:59:10 196 262 19991 -1088 -15 CRUISE
2021-04-04 16:00:10 196 261 19993 -1078 -15 CRUISE
2021-04-04 16:01:11 196 262 19999 -1069 -15 CRUISE
2021-04-04 16:02:11 197 263 19999 -1060 -15 CRUISE
2021-04-04 16:03:11 197 263 20001 -1051 -15 CRUISE
2021-04-04 16:04:12 197 264 20001 -1041 -16 CRUISE
2021-04-04 16:05:12 197 264 20001 -1032 -16 CRUISE
2021-04-04 16:06:12 198 265 20001 -1023 -16 CRUISE
2021-04-04 16:07:13 198 265 20000 -1014 -16 CRUISE
2021-04-04 16:08:13 198 265 20000 -1004 -16 CRUISE
2021-04-04 16:09:13 198 265 20000 -995 -16 CRUISE
2021-04-04 16:10:14 198 265 20000 -986 -16 CRUISE
2021-04-04 16:11:14 195 265 19991 -976 -17 CRUISE
2021-04-04 16:12:14 195 269 20001 -967 -17 CRUISE
2021-04-04 16:13:15 197 272 20001 -957 -17 CRUISE
2021-04-04 16:14:15 198 274 20001 -948 -17 CRUISE
2021-04-04 16:15:16 198 274 20001 -939 -17 CRUISE
2021-04-04 16:16:16 198 275 20007 -929 -17 CRUISE
2021-04-04 16:17:16 199 275 20000 -920 -17 CRUISE
2021-04-04 16:18:17 199 275 20000 -911 -17 CRUISE
2021-04-04 16:19:17 198 275 20000 -901 -17 CRUISE
2021-04-04 16:20:17 197 277 20008 -892 -16 CRUISE
2021-04-04 16:21:18 198 279 20000 -883 -16 CRUISE
2021-04-04 16:22:18 198 279 20001 -873 -16 CRUISE
2021-04-04 16:23:18 198 279 20000 -864 -16 DESCEND
2021-04-04 16:24:19 198 279 20000 -855 -16 DESCEND
2021-04-04 16:25:19 197 276 20003 -845 -16 DESCEND
2021-04-04 16:26:20 198 276 20000 -836 -16 CRUISE
2021-04-04 16:27:20 198 276 20000 -826 -16 CRUISE
2021-04-04 16:28:20 198 276 19999 -817 -16 CRUISE
2021-04-04 16:29:21 198 276 19999 -808 -16 CRUISE
2021-04-04 16:30:21 198 276 19999 -798 -16 CRUISE
2021-04-04 16:31:21 198 276 19999 -789 -16 CRUISE
2021-04-04 16:32:22 198 276 19999 -780 -16 CRUISE
2021-04-04 16:33:22 198 276 20000 -770 -16 CRUISE
2021-04-04 16:34:22 198 276 20000 -761 -16 CRUISE
2021-04-04 16:35:23 198 276 20000 -751 -16 CRUISE
2021-04-04 16:36:23 198 276 20000 -742 -16 CRUISE
2021-04-04 16:37:23 198 276 20000 -733 -16 CRUISE
2021-04-04 16:38:24 198 276 20000 -723 -16 CRUISE
2021-04-04 16:39:24 198 277 20000 -714 -16 CRUISE
2021-04-04 16:40:24 198 277 19999 -705 -16 CRUISE
2021-04-04 16:41:25 198 276 19999 -695 -16 CRUISE
2021-04-04 16:42:25 198 276 19999 -686 -16 CRUISE
2021-04-04 16:43:26 198 276 19999 -677 -16 CRUISE
2021-04-04 16:44:26 198 276 19999 -667 -16 CRUISE
2021-04-04 16:45:26 198 276 20000 -658 -16 CRUISE
2021-04-04 16:46:27 198 276 20000 -649 -16 CRUISE
2021-04-04 16:47:27 198 276 20000 -639 -16 CRUISE
2021-04-04 16:48:27 198 277 20000 -630 -16 CRUISE
2021-04-04 16:49:28 198 277 20000 -620 -16 CRUISE
2021-04-04 16:50:28 198 277 20000 -611 -16 CRUISE
2021-04-04 16:51:28 198 277 20000 -602 -16 CRUISE
2021-04-04 16:52:29 198 277 19999 -592 -16 CRUISE
2021-04-04 16:53:29 198 277 19999 -583 -16 CRUISE
2021-04-04 16:54:29 198 277 19999 -573 -16 CRUISE
2021-04-04 16:55:30 198 277 19999 -564 -16 CRUISE
2021-04-04 16:56:30 198 277 19999 -555 -16 CRUISE
2021-04-04 16:57:31 191 279 19989 -545 -15 CRUISE
2021-04-04 16:58:31 194 283 20001 -536 -14 CRUISE
2021-04-04 16:59:31 196 286 20001 -527 -14 CRUISE
2021-04-04 17:00:32 197 287 20001 -518 -14 CRUISE
2021-04-04 17:01:32 198 288 20001 -508 -14 CRUISE
2021-04-04 17:02:32 198 289 20001 -499 -14 CRUISE
2021-04-04 17:03:33 198 289 20002 -490 -14 CRUISE
2021-04-04 17:04:33 198 288 19998 -480 -14 CRUISE
2021-04-04 17:05:33 198 288 19998 -471 -14 CRUISE
2021-04-04 17:06:34 198 288 19999 -462 -14 CRUISE
2021-04-04 17:07:34 198 288 19999 -452 -14 CRUISE
2021-04-04 17:08:35 198 288 19999 -443 -14 CRUISE
2021-04-04 17:09:35 198 287 20002 -434 -14 CRUISE
2021-04-04 17:10:35 198 287 20000 -425 -14 CRUISE
2021-04-04 17:11:36 198 287 20000 -415 -14 CRUISE
2021-04-04 17:12:36 198 287 20001 -406 -14 CRUISE
2021-04-04 17:13:36 198 287 20001 -397 -14 CRUISE
2021-04-04 17:14:37 198 288 20001 -387 -14 CRUISE
2021-04-04 17:15:37 198 288 20001 -378 -14 CRUISE
2021-04-04 17:16:37 198 287 19998 -369 -14 CRUISE
2021-04-04 17:17:38 198 287 19998 -359 -14 CRUISE
2021-04-04 17:18:38 198 287 19999 -350 -14 CRUISE
2021-04-04 17:19:38 198 287 19999 -341 -14 CRUISE
2021-04-04 17:20:39 198 287 19999 -331 -14 CRUISE
2021-04-04 17:21:39 198 287 19999 -322 -14 CRUISE
2021-04-04 17:22:39 198 287 20000 -313 -14 CRUISE
2021-04-04 17:23:40 198 287 20000 -303 -14 CRUISE
2021-04-04 17:24:40 198 287 20000 -294 -14 CRUISE
2021-04-04 17:25:40 198 288 20001 -285 -14 CRUISE
2021-04-04 17:26:41 198 288 20001 -275 -14 CRUISE
2021-04-04 17:27:41 198 288 19998 -266 -14 CRUISE
2021-04-04 17:28:42 198 287 19998 -257 -14 CRUISE
2021-04-04 17:29:42 198 287 19998 -247 -14 CRUISE
2021-04-04 17:30:42 198 287 19998 -238 -14 CRUISE
2021-04-04 17:31:43 198 287 19999 -229 -14 CRUISE
2021-04-04 17:32:43 198 287 19999 -219 -14 CRUISE
2021-04-04 17:33:43 198 287 20001 -210 -14 CRUISE
2021-04-04 17:34:44 198 288 20001 -201 -14 CRUISE
2021-04-04 17:35:44 198 288 20001 -192 -14 CRUISE
2021-04-04 17:36:44 198 288 20002 -182 -14 CRUISE
2021-04-04 17:37:45 199 288 20002 -173 -14 CRUISE
2021-04-04 17:38:45 199 288 20002 -163 -14 CRUISE
2021-04-04 17:39:45 199 288 19999 -154 -14 CRUISE
2021-04-04 17:40:46 198 288 19999 -145 -14 CRUISE
2021-04-04 17:41:46 198 287 19999 -135 -14 CRUISE
2021-04-04 17:42:46 198 287 19999 -126 -14 CRUISE
2021-04-04 17:43:47 198 288 20000 -117 -14 CRUISE
2021-04-04 17:44:47 198 288 20000 -108 -14 CRUISE
2021-04-04 17:45:48 198 288 20000 -98 -14 CRUISE
2021-04-04 17:46:48 198 288 20001 -89 -14 CRUISE
2021-04-04 17:47:48 199 288 20001 -79 -14 CRUISE
2021-04-04 17:48:49 199 288 20001 -70 -14 CRUISE
2021-04-04 17:49:49 199 288 20002 -61 -14 CRUISE
2021-04-04 17:50:49 199 291 19967 -52 -14 CRUISE
2021-04-04 17:51:50 199 291 19999 -42 -15 DESCEND
2021-04-04 17:52:50 199 291 19999 -33 -17 DESCEND
2021-04-04 17:53:50 200 291 19999 -23 -18 DESCEND
2021-04-04 17:54:51 200 291 19999 -14 -18 DESCEND
2021-04-04 17:55:51 200 291 20000 -4 -18 DESCEND
2021-04-04 17:56:51 200 291 20000 4 -18 DESCEND
2021-04-04 17:57:52 200 291 20000 14 -18 DESCEND
2021-04-04 17:58:52 200 291 20001 23 -18 DESCEND
2021-04-04 17:59:53 200 291 20001 33 -18 DESCEND
2021-04-04 18:00:53 200 291 20002 42 -18 DESCEND
2021-04-04 18:01:53 200 291 20002 52 -18 DESCEND
2021-04-04 18:02:54 202 292 19963 61 -18 DESCEND
2021-04-04 18:03:54 200 288 19987 71 -18 DESCEND
2021-04-04 18:04:54 199 269 20000 80 -18 DESCEND
2021-04-04 18:05:55 199 265 19998 89 -18 CRUISE
2021-04-04 18:06:55 199 256 19984 99 -18 CRUISE
2021-04-04 18:07:55 198 273 20003 108 -18 DESCEND
2021-04-04 18:08:56 199 274 19998 118 -18 CRUISE
2021-04-04 18:09:56 199 275 19998 127 -18 CRUISE
2021-04-04 18:10:57 199 257 19998 137 -18 CRUISE
2021-04-04 18:11:57 199 257 19997 146 -18 DESCEND
2021-04-04 18:12:57 198 279 19987 156 -18 DESCEND
2021-04-04 18:13:58 198 288 19999 165 -18 DESCEND
2021-04-04 18:14:58 200 290 19980 175 -18 DESCEND
2021-04-04 18:15:58 198 255 19985 184 -18 DESCEND
2021-04-04 18:16:59 198 256 19998 193 -18 DESCEND
2021-04-04 18:17:59 198 278 19984 203 -18 DESCEND
2021-04-04 18:18:59 198 285 19999 212 -18 DESCEND
2021-04-04 18:20:00 198 263 19984 222 -18 DESCEND
2021-04-04 18:21:00 198 255 20002 231 -18 DESCEND
2021-04-04 18:22:00 199 267 19980 241 -18 DESCEND
2021-04-04 18:23:01 198 286 19986 250 -18 DESCEND
2021-04-04 18:24:01 199 281 19979 260 -18 DESCEND
2021-04-04 18:25:01 198 254 19985 269 -18 DESCEND
2021-04-04 18:26:02 199 256 19998 279 -18 DESCEND
2021-04-04 18:27:02 198 286 19985 288 -18 DESCEND
2021-04-04 18:28:02 198 286 19999 298 -18 DESCEND
2021-04-04 18:29:03 198 259 19985 307 -18 DESCEND
2021-04-04 18:30:03 198 255 19999 316 -18 DESCEND
2021-04-04 18:31:04 198 272 19987 326 -18 DESCEND
2021-04-04 18:32:04 197 284 20016 335 -18 DESCEND
2021-04-04 18:33:04 199 275 19979 345 -18 DESCEND
2021-04-04 18:34:05 197 254 20007 354 -18 DESCEND
2021-04-04 18:35:05 199 258 19984 364 -18 DESCEND
2021-04-04 18:36:05 198 288 19985 373 -18 DESCEND
2021-04-04 18:37:06 199 287 19997 383 -18 DESCEND
2021-04-04 18:38:06 198 255 19985 392 -18 DESCEND
2021-04-04 18:39:06 198 256 19998 402 -18 DESCEND
2021-04-04 18:40:07 198 279 19983 411 -18 DESCEND
2021-04-04 18:41:07 198 286 19999 420 -18 DESCEND
2021-04-04 18:42:07 198 269 19986 430 -18 DESCEND
2021-04-04 18:43:08 198 255 20000 439 -18 DESCEND
2021-04-04 18:44:08 199 263 19983 449 -18 DESCEND
2021-04-04 18:45:08 198 288 19985 458 -18 DESCEND
2021-04-04 18:46:09 200 287 19967 468 -18 DESCEND
2021-04-04 18:47:09 198 254 19985 477 -18 DESCEND
2021-04-04 18:48:09 199 256 19998 487 -18 DESCEND
2021-04-04 18:49:10 207 290 19129 494 -16 DESCEND
2021-04-04 18:50:10 207 286 17098 496 -12 DESCEND
2021-04-04 18:51:11 208 269 15042 498 -7 DESCEND
2021-04-04 18:52:11 208 264 13020 500 -2 DESCEND
2021-04-04 18:53:11 216 268 10886 502 2 DESCEND
2021-04-04 18:54:12 228 256 8462 505 7 DESCEND
2021-04-04 18:55:12 220 238 6401 508 12 DESCEND
2021-04-04 18:56:12 201 215 5072 511 15 DESCEND
2021-04-04 18:57:13 200 212 3585 513 18 DESCEND
2021-04-04 18:58:13 191 199 2528 517 20 DESCEND
2021-04-04 18:59:13 146 152 2488 520 20 DESCEND
2021-04-04 19:00:14 125 130 2522 522 10 CRUISE
2021-04-04 19:01:14 146 153 2993 534 9 CRUISE
2021-04-04 19:02:15 129 135 3581 548 8 CRUISE
2021-04-04 19:03:15 120 126 2842 552 9 CRUISE
2021-04-04 19:04:15 107 109 2222 557 10 LANDING
2021-04-04 19:05:16 31 32 2220 561 10 LANDED - VS: -83 ft/min